sensor_id;sensor_type;location;lat;lon;timestamp;P1;durP1;ratioP1;P2;durP2;ratioP2
18443;SDS011;9350;53.176;8.194;2024-01-30T00:00:32;19.70;;;11.43;;
18443;SDS011;9350;53.176;8.194;2024-01-30T00:02:59;17.60;;;11.27;;
18443;SDS011;9350;53.176;8.194;2024-01-30T00:05:27;20.17;;;11.38;;
18443;SDS011;9350;53.176;8.194;2024-01-30T00:07:54;17.92;;;11.07;;
18443;SDS011;9350;53.176;8.194;2024-01-30T00:10:20;18.73;;;11.23;;
18443;SDS011;9350;53.176;8.194;2024-01-30T00:12:47;20.80;;;11.13;;
18443;SDS011;9350;53.176;8.194;2024-01-30T00:15:14;24.52;;;11.55;;
18443;SDS011;9350;53.176;8.194;2024-01-30T00:17:41;17.30;;;11.43;;
18443;SDS011;9350;53.176;8.194;2024-01-30T00:20:08;21.85;;;11.27;;
18443;SDS011;9350;53.176;8.194;2024-01-30T00:22:37;20.63;;;11.45;;
18443;SDS011;9350;53.176;8.194;2024-01-30T00:25:04;18.77;;;11.35;;
18443;SDS011;9350;53.176;8.194;2024-01-30T00:27:31;19.90;;;11.40;;
18443;SDS011;9350;53.176;8.194;2024-01-30T00:29:57;22.65;;;11.98;;
18443;SDS011;9350;53.176;8.194;2024-01-30T00:32:24;20.80;;;11.82;;
18443;SDS011;9350;53.176;8.194;2024-01-30T00:34:51;22.23;;;12.70;;
18443;SDS011;9350;53.176;8.194;2024-01-30T00:37:18;21.13;;;11.90;;
18443;SDS011;9350;53.176;8.194;2024-01-30T00:39:46;21.13;;;11.63;;
18443;SDS011;9350;53.176;8.194;2024-01-30T00:42:13;22.02;;;11.93;;
18443;SDS011;9350;53.176;8.194;2024-01-30T00:44:40;18.60;;;11.27;;
18443;SDS011;9350;53.176;8.194;2024-01-30T00:47:06;26.38;;;11.98;;
18443;SDS011;9350;53.176;8.194;2024-01-30T00:49:33;19.83;;;12.23;;
18443;SDS011;9350;53.176;8.194;2024-01-30T00:52:00;20.75;;;12.10;;
18443;SDS011;9350;53.176;8.194;2024-01-30T00:54:27;18.48;;;10.98;;
18443;SDS011;9350;53.176;8.194;2024-01-30T00:56:55;23.60;;;11.48;;
18443;SDS011;9350;53.176;8.194;2024-01-30T00:59:22;20.23;;;11.65;;
18443;SDS011;9350;53.176;8.194;2024-01-30T01:01:48;19.52;;;12.25;;
18443;SDS011;9350;53.176;8.194;2024-01-30T01:04:15;19.77;;;11.90;;
18443;SDS011;9350;53.176;8.194;2024-01-30T01:06:42;17.98;;;11.27;;
18443;SDS011;9350;53.176;8.194;2024-01-30T01:09:10;21.60;;;11.63;;
18443;SDS011;9350;53.176;8.194;2024-01-30T01:11:37;19.20;;;11.65;;
18443;SDS011;9350;53.176;8.194;2024-01-30T01:14:05;21.38;;;11.63;;
18443;SDS011;9350;53.176;8.194;2024-01-30T01:16:32;20.08;;;11.85;;
18443;SDS011;9350;53.176;8.194;2024-01-30T01:19:00;18.98;;;10.80;;
18443;SDS011;9350;53.176;8.194;2024-01-30T01:21:27;23.85;;;11.70;;
18443;SDS011;9350;53.176;8.194;2024-01-30T01:23:54;21.08;;;11.25;;
18443;SDS011;9350;53.176;8.194;2024-01-30T01:26:20;19.42;;;11.00;;
18443;SDS011;9350;53.176;8.194;2024-01-30T01:28:47;18.15;;;10.68;;
18443;SDS011;9350;53.176;8.194;2024-01-30T01:31:15;18.45;;;10.73;;
18443;SDS011;9350;53.176;8.194;2024-01-30T01:33:42;16.17;;;10.65;;
18443;SDS011;9350;53.176;8.194;2024-01-30T01:36:09;19.33;;;10.77;;
18443;SDS011;9350;53.176;8.194;2024-01-30T01:38:36;20.48;;;11.07;;
18443;SDS011;9350;53.176;8.194;2024-01-30T01:41:03;22.92;;;11.27;;
18443;SDS011;9350;53.176;8.194;2024-01-30T01:43:30;21.60;;;11.65;;
18443;SDS011;9350;53.176;8.194;2024-01-30T01:45:56;21.42;;;11.02;;
18443;SDS011;9350;53.176;8.194;2024-01-30T01:48:25;20.08;;;11.75;;
18443;SDS011;9350;53.176;8.194;2024-01-30T01:50:52;17.63;;;10.40;;
18443;SDS011;9350;53.176;8.194;2024-01-30T01:53:19;18.42;;;10.43;;
18443;SDS011;9350;53.176;8.194;2024-01-30T01:55:46;15.98;;;10.10;;
18443;SDS011;9350;53.176;8.194;2024-01-30T01:58:14;17.10;;;10.40;;
18443;SDS011;9350;53.176;8.194;2024-01-30T02:00:41;16.92;;;10.50;;
18443;SDS011;9350;53.176;8.194;2024-01-30T02:03:08;19.83;;;11.00;;
18443;SDS011;9350;53.176;8.194;2024-01-30T02:05:38;17.88;;;10.63;;
18443;SDS011;9350;53.176;8.194;2024-01-30T02:08:05;18.85;;;11.23;;
18443;SDS011;9350;53.176;8.194;2024-01-30T02:10:33;15.85;;;10.38;;
18443;SDS011;9350;53.176;8.194;2024-01-30T02:12:59;18.90;;;10.77;;
18443;SDS011;9350;53.176;8.194;2024-01-30T02:15:26;21.15;;;11.05;;
18443;SDS011;9350;53.176;8.194;2024-01-30T02:17:54;17.25;;;10.85;;
18443;SDS011;9350;53.176;8.194;2024-01-30T02:20:21;18.27;;;10.73;;
18443;SDS011;9350;53.176;8.194;2024-01-30T02:22:51;19.00;;;10.70;;
18443;SDS011;9350;53.176;8.194;2024-01-30T02:25:18;19.75;;;10.77;;
18443;SDS011;9350;53.176;8.194;2024-01-30T02:27:45;16.15;;;10.50;;
18443;SDS011;9350;53.176;8.194;2024-01-30T02:30:12;20.65;;;11.45;;
18443;SDS011;9350;53.176;8.194;2024-01-30T02:32:39;18.15;;;10.88;;
18443;SDS011;9350;53.176;8.194;2024-01-30T02:35:06;22.27;;;11.48;;
18443;SDS011;9350;53.176;8.194;2024-01-30T02:37:33;17.50;;;11.15;;
18443;SDS011;9350;53.176;8.194;2024-01-30T02:40:01;14.65;;;10.23;;
18443;SDS011;9350;53.176;8.194;2024-01-30T02:42:27;16.40;;;10.63;;
18443;SDS011;9350;53.176;8.194;2024-01-30T02:44:54;17.83;;;10.63;;
18443;SDS011;9350;53.176;8.194;2024-01-30T02:47:21;18.40;;;11.05;;
18443;SDS011;9350;53.176;8.194;2024-01-30T02:49:48;17.73;;;10.90;;
18443;SDS011;9350;53.176;8.194;2024-01-30T02:52:14;19.83;;;11.18;;
18443;SDS011;9350;53.176;8.194;2024-01-30T02:54:41;17.75;;;10.25;;
18443;SDS011;9350;53.176;8.194;2024-01-30T02:57:09;16.38;;;11.10;;
18443;SDS011;9350;53.176;8.194;2024-01-30T02:59:36;20.95;;;11.80;;
18443;SDS011;9350;53.176;8.194;2024-01-30T03:02:03;19.38;;;10.73;;
18443;SDS011;9350;53.176;8.194;2024-01-30T03:04:30;17.45;;;10.70;;
18443;SDS011;9350;53.176;8.194;2024-01-30T03:06:57;18.48;;;11.60;;
18443;SDS011;9350;53.176;8.194;2024-01-30T03:09:23;18.20;;;11.55;;
18443;SDS011;9350;53.176;8.194;2024-01-30T03:11:50;18.92;;;11.55;;
18443;SDS011;9350;53.176;8.194;2024-01-30T03:14:18;18.05;;;11.50;;
18443;SDS011;9350;53.176;8.194;2024-01-30T03:16:45;20.15;;;11.80;;
18443;SDS011;9350;53.176;8.194;2024-01-30T03:19:12;20.58;;;11.90;;
18443;SDS011;9350;53.176;8.194;2024-01-30T03:21:39;22.63;;;11.68;;
18443;SDS011;9350;53.176;8.194;2024-01-30T03:24:05;18.52;;;11.82;;
18443;SDS011;9350;53.176;8.194;2024-01-30T03:26:32;16.70;;;11.13;;
18443;SDS011;9350;53.176;8.194;2024-01-30T03:28:59;19.92;;;11.25;;
18443;SDS011;9350;53.176;8.194;2024-01-30T03:31:27;18.20;;;11.15;;
18443;SDS011;9350;53.176;8.194;2024-01-30T03:33:54;20.45;;;11.45;;
18443;SDS011;9350;53.176;8.194;2024-01-30T03:36:21;20.90;;;11.32;;
18443;SDS011;9350;53.176;8.194;2024-01-30T03:38:48;18.15;;;11.35;;
18443;SDS011;9350;53.176;8.194;2024-01-30T03:41:15;24.15;;;12.35;;
18443;SDS011;9350;53.176;8.194;2024-01-30T03:43:41;17.00;;;11.85;;
18443;SDS011;9350;53.176;8.194;2024-01-30T03:46:08;18.70;;;12.15;;
18443;SDS011;9350;53.176;8.194;2024-01-30T03:48:38;19.92;;;12.13;;
18443;SDS011;9350;53.176;8.194;2024-01-30T03:51:05;20.73;;;12.00;;
18443;SDS011;9350;53.176;8.194;2024-01-30T03:53:32;18.90;;;11.75;;
18443;SDS011;9350;53.176;8.194;2024-01-30T03:55:59;19.88;;;12.55;;
18443;SDS011;9350;53.176;8.194;2024-01-30T03:58:26;17.40;;;11.73;;
18443;SDS011;9350;53.176;8.194;2024-01-30T04:00:52;19.05;;;11.95;;
18443;SDS011;9350;53.176;8.194;2024-01-30T04:03:19;19.10;;;11.60;;
18443;SDS011;9350;53.176;8.194;2024-01-30T04:05:47;19.58;;;11.77;;
18443;SDS011;9350;53.176;8.194;2024-01-30T04:08:14;15.63;;;10.70;;
18443;SDS011;9350;53.176;8.194;2024-01-30T04:10:41;21.65;;;11.15;;
18443;SDS011;9350;53.176;8.194;2024-01-30T04:13:08;22.98;;;11.68;;
18443;SDS011;9350;53.176;8.194;2024-01-30T04:15:34;20.63;;;11.73;;
18443;SDS011;9350;53.176;8.194;2024-01-30T04:18:02;19.60;;;10.80;;
18443;SDS011;9350;53.176;8.194;2024-01-30T04:20:29;21.27;;;10.90;;
18443;SDS011;9350;53.176;8.194;2024-01-30T04:22:57;19.02;;;11.18;;
18443;SDS011;9350;53.176;8.194;2024-01-30T04:25:24;20.52;;;11.15;;
18443;SDS011;9350;53.176;8.194;2024-01-30T04:27:51;20.73;;;10.70;;
18443;SDS011;9350;53.176;8.194;2024-01-30T04:30:17;16.33;;;10.93;;
18443;SDS011;9350;53.176;8.194;2024-01-30T04:32:44;18.63;;;11.00;;
18443;SDS011;9350;53.176;8.194;2024-01-30T04:35:11;17.30;;;11.38;;
18443;SDS011;9350;53.176;8.194;2024-01-30T04:37:38;23.15;;;10.77;;
18443;SDS011;9350;53.176;8.194;2024-01-30T04:40:06;17.40;;;10.68;;
18443;SDS011;9350;53.176;8.194;2024-01-30T04:42:34;18.88;;;10.60;;
18443;SDS011;9350;53.176;8.194;2024-01-30T04:45:01;20.10;;;11.32;;
18443;SDS011;9350;53.176;8.194;2024-01-30T04:47:28;23.75;;;12.07;;
18443;SDS011;9350;53.176;8.194;2024-01-30T04:49:55;18.55;;;11.15;;
18443;SDS011;9350;53.176;8.194;2024-01-30T04:52:21;17.73;;;11.77;;
18443;SDS011;9350;53.176;8.194;2024-01-30T04:54:48;22.15;;;11.85;;
18443;SDS011;9350;53.176;8.194;2024-01-30T04:57:16;17.90;;;11.70;;
18443;SDS011;9350;53.176;8.194;2024-01-30T04:59:43;19.65;;;11.32;;
18443;SDS011;9350;53.176;8.194;2024-01-30T05:02:10;20.38;;;12.50;;
18443;SDS011;9350;53.176;8.194;2024-01-30T05:04:37;18.45;;;11.27;;
18443;SDS011;9350;53.176;8.194;2024-01-30T05:07:03;21.70;;;11.85;;
18443;SDS011;9350;53.176;8.194;2024-01-30T05:09:30;20.48;;;11.85;;
18443;SDS011;9350;53.176;8.194;2024-01-30T05:11:57;19.95;;;11.45;;
18443;SDS011;9350;53.176;8.194;2024-01-30T05:14:25;21.33;;;11.60;;
18443;SDS011;9350;53.176;8.194;2024-01-30T05:16:52;20.70;;;11.27;;
18443;SDS011;9350;53.176;8.194;2024-01-30T05:19:20;21.20;;;12.50;;
18443;SDS011;9350;53.176;8.194;2024-01-30T05:21:48;18.20;;;11.18;;
18443;SDS011;9350;53.176;8.194;2024-01-30T05:24:15;18.80;;;11.52;;
18443;SDS011;9350;53.176;8.194;2024-01-30T05:26:41;19.02;;;11.25;;
18443;SDS011;9350;53.176;8.194;2024-01-30T05:29:08;19.13;;;11.70;;
18443;SDS011;9350;53.176;8.194;2024-01-30T05:31:36;16.60;;;11.52;;
18443;SDS011;9350;53.176;8.194;2024-01-30T05:34:03;18.90;;;11.07;;
18443;SDS011;9350;53.176;8.194;2024-01-30T05:36:31;17.13;;;10.30;;
18443;SDS011;9350;53.176;8.194;2024-01-30T05:38:58;18.00;;;10.50;;
18443;SDS011;9350;53.176;8.194;2024-01-30T05:41:25;20.60;;;11.48;;
18443;SDS011;9350;53.176;8.194;2024-01-30T05:43:52;18.63;;;11.35;;
18443;SDS011;9350;53.176;8.194;2024-01-30T05:46:18;16.15;;;10.98;;
18443;SDS011;9350;53.176;8.194;2024-01-30T05:48:46;20.52;;;12.25;;
18443;SDS011;9350;53.176;8.194;2024-01-30T05:51:13;18.25;;;10.30;;
18443;SDS011;9350;53.176;8.194;2024-01-30T05:53:40;22.25;;;11.30;;
18443;SDS011;9350;53.176;8.194;2024-01-30T05:56:07;19.05;;;11.35;;
18443;SDS011;9350;53.176;8.194;2024-01-30T05:58:34;18.25;;;11.48;;
18443;SDS011;9350;53.176;8.194;2024-01-30T06:01:02;16.63;;;11.43;;
18443;SDS011;9350;53.176;8.194;2024-01-30T06:03:29;21.58;;;11.38;;
18443;SDS011;9350;53.176;8.194;2024-01-30T06:05:57;19.70;;;11.48;;
18443;SDS011;9350;53.176;8.194;2024-01-30T06:08:24;17.67;;;11.52;;
18443;SDS011;9350;53.176;8.194;2024-01-30T06:10:51;20.30;;;12.13;;
18443;SDS011;9350;53.176;8.194;2024-01-30T06:13:17;17.95;;;11.50;;
18443;SDS011;9350;53.176;8.194;2024-01-30T06:15:44;18.73;;;11.50;;
18443;SDS011;9350;53.176;8.194;2024-01-30T06:18:11;19.88;;;11.40;;
18443;SDS011;9350;53.176;8.194;2024-01-30T06:20:38;20.98;;;11.40;;
18443;SDS011;9350;53.176;8.194;2024-01-30T06:23:06;19.70;;;11.13;;
18443;SDS011;9350;53.176;8.194;2024-01-30T06:25:33;18.88;;;11.02;;
18443;SDS011;9350;53.176;8.194;2024-01-30T06:28:00;19.13;;;11.13;;
18443;SDS011;9350;53.176;8.194;2024-01-30T06:30:26;21.27;;;11.68;;
18443;SDS011;9350;53.176;8.194;2024-01-30T06:32:53;20.77;;;11.32;;
18443;SDS011;9350;53.176;8.194;2024-01-30T06:35:20;21.25;;;12.20;;
18443;SDS011;9350;53.176;8.194;2024-01-30T06:37:47;17.85;;;11.38;;
18443;SDS011;9350;53.176;8.194;2024-01-30T06:40:15;17.63;;;11.75;;
18443;SDS011;9350;53.176;8.194;2024-01-30T06:42:42;20.92;;;12.07;;
18443;SDS011;9350;53.176;8.194;2024-01-30T06:45:09;18.10;;;10.88;;
18443;SDS011;9350;53.176;8.194;2024-01-30T06:47:36;22.75;;;12.32;;
18443;SDS011;9350;53.176;8.194;2024-01-30T06:50:02;16.98;;;10.73;;
18443;SDS011;9350;53.176;8.194;2024-01-30T06:52:30;27.55;;;12.10;;
18443;SDS011;9350;53.176;8.194;2024-01-30T06:54:56;19.48;;;11.73;;
18443;SDS011;9350;53.176;8.194;2024-01-30T06:57:24;20.40;;;11.93;;
18443;SDS011;9350;53.176;8.194;2024-01-30T06:59:53;22.10;;;11.63;;
18443;SDS011;9350;53.176;8.194;2024-01-30T07:02:19;21.55;;;12.35;;
18443;SDS011;9350;53.176;8.194;2024-01-30T07:04:46;18.70;;;12.07;;
18443;SDS011;9350;53.176;8.194;2024-01-30T07:07:14;19.00;;;12.30;;
18443;SDS011;9350;53.176;8.194;2024-01-30T07:09:41;26.00;;;12.70;;
18443;SDS011;9350;53.176;8.194;2024-01-30T07:12:08;20.73;;;11.98;;
18443;SDS011;9350;53.176;8.194;2024-01-30T07:14:36;22.10;;;11.95;;
18443;SDS011;9350;53.176;8.194;2024-01-30T07:17:03;23.75;;;12.80;;
18443;SDS011;9350;53.176;8.194;2024-01-30T07:19:30;20.02;;;12.25;;
18443;SDS011;9350;53.176;8.194;2024-01-30T07:21:56;21.55;;;12.63;;
18443;SDS011;9350;53.176;8.194;2024-01-30T07:24:23;17.25;;;11.38;;
18443;SDS011;9350;53.176;8.194;2024-01-30T07:26:50;22.83;;;12.75;;
18443;SDS011;9350;53.176;8.194;2024-01-30T07:29:17;21.15;;;12.05;;
18443;SDS011;9350;53.176;8.194;2024-01-30T07:31:45;21.15;;;12.35;;
18443;SDS011;9350;53.176;8.194;2024-01-30T07:34:12;23.02;;;11.85;;
18443;SDS011;9350;53.176;8.194;2024-01-30T07:36:39;23.45;;;11.55;;
18443;SDS011;9350;53.176;8.194;2024-01-30T07:39:05;18.63;;;11.80;;
18443;SDS011;9350;53.176;8.194;2024-01-30T07:41:32;21.60;;;12.00;;
18443;SDS011;9350;53.176;8.194;2024-01-30T07:43:59;20.20;;;11.57;;
18443;SDS011;9350;53.176;8.194;2024-01-30T07:46:26;18.63;;;11.93;;
18443;SDS011;9350;53.176;8.194;2024-01-30T07:48:54;21.25;;;12.43;;
18443;SDS011;9350;53.176;8.194;2024-01-30T07:51:22;27.40;;;12.02;;
18443;SDS011;9350;53.176;8.194;2024-01-30T07:53:49;20.70;;;12.02;;
18443;SDS011;9350;53.176;8.194;2024-01-30T07:56:16;19.23;;;12.15;;
18443;SDS011;9350;53.176;8.194;2024-01-30T07:58:42;19.42;;;11.88;;
18443;SDS011;9350;53.176;8.194;2024-01-30T08:01:09;19.33;;;11.50;;
18443;SDS011;9350;53.176;8.194;2024-01-30T08:03:36;18.15;;;11.18;;
18443;SDS011;9350;53.176;8.194;2024-01-30T08:06:06;20.38;;;11.90;;
18443;SDS011;9350;53.176;8.194;2024-01-30T08:08:33;21.50;;;11.77;;
18443;SDS011;9350;53.176;8.194;2024-01-30T08:10:59;19.40;;;11.15;;
18443;SDS011;9350;53.176;8.194;2024-01-30T08:13:27;22.25;;;12.07;;
18443;SDS011;9350;53.176;8.194;2024-01-30T08:15:54;20.55;;;12.13;;
18443;SDS011;9350;53.176;8.194;2024-01-30T08:18:20;20.83;;;12.02;;
18443;SDS011;9350;53.176;8.194;2024-01-30T08:20:47;23.50;;;12.10;;
18443;SDS011;9350;53.176;8.194;2024-01-30T08:23:15;20.33;;;11.75;;
18443;SDS011;9350;53.176;8.194;2024-01-30T08:25:42;18.70;;;11.10;;
18443;SDS011;9350;53.176;8.194;2024-01-30T08:28:09;22.83;;;11.60;;
18443;SDS011;9350;53.176;8.194;2024-01-30T08:30:36;17.77;;;11.27;;
18443;SDS011;9350;53.176;8.194;2024-01-30T08:33:04;19.52;;;11.82;;
18443;SDS011;9350;53.176;8.194;2024-01-30T08:35:31;22.15;;;11.02;;
18443;SDS011;9350;53.176;8.194;2024-01-30T08:37:58;18.13;;;10.65;;
18443;SDS011;9350;53.176;8.194;2024-01-30T08:40:26;19.98;;;11.23;;
18443;SDS011;9350;53.176;8.194;2024-01-30T08:42:53;15.35;;;10.20;;
18443;SDS011;9350;53.176;8.194;2024-01-30T08:45:20;19.15;;;11.15;;
18443;SDS011;9350;53.176;8.194;2024-01-30T08:47:47;19.88;;;11.57;;
18443;SDS011;9350;53.176;8.194;2024-01-30T08:50:14;18.77;;;11.30;;
18443;SDS011;9350;53.176;8.194;2024-01-30T08:52:41;21.20;;;11.57;;
18443;SDS011;9350;53.176;8.194;2024-01-30T08:55:08;15.85;;;10.48;;
18443;SDS011;9350;53.176;8.194;2024-01-30T08:57:36;21.42;;;11.52;;
18443;SDS011;9350;53.176;8.194;2024-01-30T09:00:03;17.73;;;11.05;;
18443;SDS011;9350;53.176;8.194;2024-01-30T09:02:33;16.27;;;10.75;;
18443;SDS011;9350;53.176;8.194;2024-01-30T09:05:00;21.80;;;12.70;;
18443;SDS011;9350;53.176;8.194;2024-01-30T09:07:28;21.98;;;11.77;;
18443;SDS011;9350;53.176;8.194;2024-01-30T09:09:54;20.23;;;11.15;;
18443;SDS011;9350;53.176;8.194;2024-01-30T09:12:21;18.90;;;10.75;;
18443;SDS011;9350;53.176;8.194;2024-01-30T09:14:49;27.50;;;11.65;;
18443;SDS011;9350;53.176;8.194;2024-01-30T09:17:16;21.90;;;10.98;;
18443;SDS011;9350;53.176;8.194;2024-01-30T09:19:43;19.52;;;11.43;;
18443;SDS011;9350;53.176;8.194;2024-01-30T09:22:09;19.67;;;10.73;;
18443;SDS011;9350;53.176;8.194;2024-01-30T09:24:36;16.25;;;10.30;;
18443;SDS011;9350;53.176;8.194;2024-01-30T09:27:03;17.30;;;10.48;;
18443;SDS011;9350;53.176;8.194;2024-01-30T09:29:31;20.08;;;10.35;;
18443;SDS011;9350;53.176;8.194;2024-01-30T09:32:00;16.35;;;10.07;;
18443;SDS011;9350;53.176;8.194;2024-01-30T09:34:27;19.40;;;9.80;;
18443;SDS011;9350;53.176;8.194;2024-01-30T09:36:54;19.55;;;10.48;;
18443;SDS011;9350;53.176;8.194;2024-01-30T09:39:20;15.43;;;9.35;;
18443;SDS011;9350;53.176;8.194;2024-01-30T09:41:48;17.15;;;10.23;;
18443;SDS011;9350;53.176;8.194;2024-01-30T09:44:18;18.23;;;9.50;;
18443;SDS011;9350;53.176;8.194;2024-01-30T09:46:47;20.33;;;9.98;;
18443;SDS011;9350;53.176;8.194;2024-01-30T09:49:15;17.13;;;9.85;;
18443;SDS011;9350;53.176;8.194;2024-01-30T09:51:43;20.92;;;10.32;;
18443;SDS011;9350;53.176;8.194;2024-01-30T09:54:11;20.45;;;10.15;;
18443;SDS011;9350;53.176;8.194;2024-01-30T09:56:42;19.75;;;9.77;;
18443;SDS011;9350;53.176;8.194;2024-01-30T09:59:08;17.23;;;9.82;;
18443;SDS011;9350;53.176;8.194;2024-01-30T10:01:36;17.75;;;10.20;;
18443;SDS011;9350;53.176;8.194;2024-01-30T10:04:03;19.00;;;10.15;;
18443;SDS011;9350;53.176;8.194;2024-01-30T10:06:32;17.88;;;9.63;;
18443;SDS011;9350;53.176;8.194;2024-01-30T10:08:58;18.52;;;10.48;;
18443;SDS011;9350;53.176;8.194;2024-01-30T10:11:25;15.48;;;9.35;;
18443;SDS011;9350;53.176;8.194;2024-01-30T10:13:52;16.75;;;9.95;;
18443;SDS011;9350;53.176;8.194;2024-01-30T10:16:20;18.17;;;10.52;;
18443;SDS011;9350;53.176;8.194;2024-01-30T10:18:46;21.40;;;10.35;;
18443;SDS011;9350;53.176;8.194;2024-01-30T10:21:13;15.55;;;9.63;;
18443;SDS011;9350;53.176;8.194;2024-01-30T10:23:43;15.27;;;9.63;;
18443;SDS011;9350;53.176;8.194;2024-01-30T10:26:10;16.13;;;9.32;;
18443;SDS011;9350;53.176;8.194;2024-01-30T10:28:36;13.48;;;8.90;;
18443;SDS011;9350;53.176;8.194;2024-01-30T10:31:03;16.20;;;9.38;;
18443;SDS011;9350;53.176;8.194;2024-01-30T10:33:30;18.23;;;10.18;;
18443;SDS011;9350;53.176;8.194;2024-01-30T10:35:59;16.92;;;9.55;;
18443;SDS011;9350;53.176;8.194;2024-01-30T10:38:27;15.38;;;9.68;;
18443;SDS011;9350;53.176;8.194;2024-01-30T10:40:58;14.98;;;9.40;;
18443;SDS011;9350;53.176;8.194;2024-01-30T10:43:28;16.83;;;9.07;;
18443;SDS011;9350;53.176;8.194;2024-01-30T10:45:57;18.60;;;9.68;;
18443;SDS011;9350;53.176;8.194;2024-01-30T10:48:32;19.70;;;9.25;;
18443;SDS011;9350;53.176;8.194;2024-01-30T10:51:08;15.63;;;9.00;;
18443;SDS011;9350;53.176;8.194;2024-01-30T10:53:37;13.88;;;8.65;;
18443;SDS011;9350;53.176;8.194;2024-01-30T11:33:09;14.15;;;8.90;;
18443;SDS011;9350;53.176;8.194;2024-01-30T11:35:37;17.25;;;8.52;;
18443;SDS011;9350;53.176;8.194;2024-01-30T11:38:05;14.88;;;8.90;;
18443;SDS011;9350;53.176;8.194;2024-01-30T11:40:33;18.75;;;8.93;;
18443;SDS011;9350;53.176;8.194;2024-01-30T11:43:01;13.98;;;8.63;;
18443;SDS011;9350;53.176;8.194;2024-01-30T11:45:30;18.38;;;8.95;;
18443;SDS011;9350;53.176;8.194;2024-01-30T11:47:57;15.40;;;9.15;;
18443;SDS011;9350;53.176;8.194;2024-01-30T11:50:27;20.38;;;9.48;;
18443;SDS011;9350;53.176;8.194;2024-01-30T11:52:55;18.65;;;10.38;;
18443;SDS011;9350;53.176;8.194;2024-01-30T11:55:22;15.90;;;9.50;;
18443;SDS011;9350;53.176;8.194;2024-01-30T11:57:49;20.20;;;9.32;;
18443;SDS011;9350;53.176;8.194;2024-01-30T12:00:17;20.73;;;11.63;;
18443;SDS011;9350;53.176;8.194;2024-01-30T12:02:48;15.43;;;9.88;;
18443;SDS011;9350;53.176;8.194;2024-01-30T12:05:16;18.98;;;9.55;;
18443;SDS011;9350;53.176;8.194;2024-01-30T12:07:46;19.15;;;9.55;;
18443;SDS011;9350;53.176;8.194;2024-01-30T12:10:13;21.08;;;10.30;;
18443;SDS011;9350;53.176;8.194;2024-01-30T12:12:40;15.85;;;8.98;;
18443;SDS011;9350;53.176;8.194;2024-01-30T12:15:09;17.50;;;9.85;;
18443;SDS011;9350;53.176;8.194;2024-01-30T12:17:37;17.13;;;9.52;;
18443;SDS011;9350;53.176;8.194;2024-01-30T12:20:04;14.82;;;9.50;;
18443;SDS011;9350;53.176;8.194;2024-01-30T12:22:32;18.45;;;9.60;;
18443;SDS011;9350;53.176;8.194;2024-01-30T12:25:03;18.45;;;9.40;;
18443;SDS011;9350;53.176;8.194;2024-01-30T12:27:31;17.05;;;9.60;;
18443;SDS011;9350;53.176;8.194;2024-01-30T12:29:58;14.52;;;9.23;;
18443;SDS011;9350;53.176;8.194;2024-01-30T12:32:25;16.70;;;9.20;;
18443;SDS011;9350;53.176;8.194;2024-01-30T12:34:54;20.08;;;9.75;;
18443;SDS011;9350;53.176;8.194;2024-01-30T12:37:22;17.50;;;9.30;;
18443;SDS011;9350;53.176;8.194;2024-01-30T12:39:49;18.25;;;9.73;;
18443;SDS011;9350;53.176;8.194;2024-01-30T12:42:19;15.02;;;9.48;;
18443;SDS011;9350;53.176;8.194;2024-01-30T12:44:47;14.43;;;9.05;;
18443;SDS011;9350;53.176;8.194;2024-01-30T12:47:14;17.20;;;8.95;;
18443;SDS011;9350;53.176;8.194;2024-01-30T12:49:42;19.95;;;9.40;;
18443;SDS011;9350;53.176;8.194;2024-01-30T12:52:09;15.63;;;10.32;;
18443;SDS011;9350;53.176;8.194;2024-01-30T12:54:36;15.98;;;9.57;;
18443;SDS011;9350;53.176;8.194;2024-01-30T12:57:03;20.20;;;9.38;;
18443;SDS011;9350;53.176;8.194;2024-01-30T12:59:32;14.07;;;9.30;;
18443;SDS011;9350;53.176;8.194;2024-01-30T13:01:59;16.38;;;9.90;;
18443;SDS011;9350;53.176;8.194;2024-01-30T13:04:28;20.02;;;9.55;;
18443;SDS011;9350;53.176;8.194;2024-01-30T13:06:55;20.08;;;9.38;;
18443;SDS011;9350;53.176;8.194;2024-01-30T13:09:23;19.38;;;10.18;;
18443;SDS011;9350;53.176;8.194;2024-01-30T13:11:50;18.27;;;10.05;;
18443;SDS011;9350;53.176;8.194;2024-01-30T13:14:17;16.63;;;10.13;;
18443;SDS011;9350;53.176;8.194;2024-01-30T13:16:45;16.08;;;9.82;;
18443;SDS011;9350;53.176;8.194;2024-01-30T13:19:12;16.73;;;9.88;;
18443;SDS011;9350;53.176;8.194;2024-01-30T13:21:39;25.13;;;9.60;;
18443;SDS011;9350;53.176;8.194;2024-01-30T13:24:06;22.42;;;10.00;;
18443;SDS011;9350;53.176;8.194;2024-01-30T13:26:33;19.63;;;9.85;;
18443;SDS011;9350;53.176;8.194;2024-01-30T13:29:00;16.90;;;10.02;;
18443;SDS011;9350;53.176;8.194;2024-01-30T13:31:27;15.63;;;9.68;;
18443;SDS011;9350;53.176;8.194;2024-01-30T13:33:55;20.85;;;9.35;;
18443;SDS011;9350;53.176;8.194;2024-01-30T13:36:22;15.75;;;9.75;;
18443;SDS011;9350;53.176;8.194;2024-01-30T13:38:49;15.85;;;9.60;;
18443;SDS011;9350;53.176;8.194;2024-01-30T13:41:15;15.52;;;9.35;;
18443;SDS011;9350;53.176;8.194;2024-01-30T13:43:43;20.42;;;11.18;;
18443;SDS011;9350;53.176;8.194;2024-01-30T13:46:10;20.63;;;9.85;;
18443;SDS011;9350;53.176;8.194;2024-01-30T13:48:37;17.40;;;9.98;;
18443;SDS011;9350;53.176;8.194;2024-01-30T13:51:05;24.75;;;11.13;;
18443;SDS011;9350;53.176;8.194;2024-01-30T13:53:32;25.42;;;10.45;;
18443;SDS011;9350;53.176;8.194;2024-01-30T13:55:58;20.42;;;9.63;;
18443;SDS011;9350;53.176;8.194;2024-01-30T13:58:25;17.65;;;10.02;;
18443;SDS011;9350;53.176;8.194;2024-01-30T14:00:52;18.92;;;9.85;;
18443;SDS011;9350;53.176;8.194;2024-01-30T14:03:20;14.88;;;9.48;;
18443;SDS011;9350;53.176;8.194;2024-01-30T14:05:46;16.83;;;9.85;;
18443;SDS011;9350;53.176;8.194;2024-01-30T14:08:14;24.95;;;10.65;;
18443;SDS011;9350;53.176;8.194;2024-01-30T14:10:41;19.48;;;9.57;;
18443;SDS011;9350;53.176;8.194;2024-01-30T14:13:08;18.25;;;9.52;;
18443;SDS011;9350;53.176;8.194;2024-01-30T14:15:36;17.15;;;9.25;;
18443;SDS011;9350;53.176;8.194;2024-01-30T14:18:03;18.60;;;10.10;;
18443;SDS011;9350;53.176;8.194;2024-01-30T14:20:33;15.55;;;8.80;;
18443;SDS011;9350;53.176;8.194;2024-01-30T14:23:00;15.23;;;9.18;;
18443;SDS011;9350;53.176;8.194;2024-01-30T14:25:28;18.00;;;9.07;;
18443;SDS011;9350;53.176;8.194;2024-01-30T14:27:55;12.88;;;9.40;;
18443;SDS011;9350;53.176;8.194;2024-01-30T14:30:22;14.55;;;9.25;;
18443;SDS011;9350;53.176;8.194;2024-01-30T14:32:48;14.95;;;9.10;;
18443;SDS011;9350;53.176;8.194;2024-01-30T14:35:15;16.15;;;8.75;;
18443;SDS011;9350;53.176;8.194;2024-01-30T14:37:44;18.73;;;9.95;;
18443;SDS011;9350;53.176;8.194;2024-01-30T14:40:11;23.23;;;10.10;;
18443;SDS011;9350;53.176;8.194;2024-01-30T14:42:39;26.05;;;10.32;;
18443;SDS011;9350;53.176;8.194;2024-01-30T14:45:06;17.30;;;8.73;;
18443;SDS011;9350;53.176;8.194;2024-01-30T14:47:34;15.02;;;8.10;;
18443;SDS011;9350;53.176;8.194;2024-01-30T14:50:01;14.30;;;9.20;;
18443;SDS011;9350;53.176;8.194;2024-01-30T14:52:29;19.15;;;9.23;;
18443;SDS011;9350;53.176;8.194;2024-01-30T14:54:56;16.25;;;9.23;;
18443;SDS011;9350;53.176;8.194;2024-01-30T14:57:23;19.38;;;8.80;;
18443;SDS011;9350;53.176;8.194;2024-01-30T14:59:52;16.02;;;8.63;;
18443;SDS011;9350;53.176;8.194;2024-01-30T15:02:18;16.95;;;8.98;;
18443;SDS011;9350;53.176;8.194;2024-01-30T15:04:45;17.20;;;8.25;;
18443;SDS011;9350;53.176;8.194;2024-01-30T15:07:12;15.85;;;9.27;;
18443;SDS011;9350;53.176;8.194;2024-01-30T15:09:39;16.27;;;8.68;;
18443;SDS011;9350;53.176;8.194;2024-01-30T15:12:06;13.88;;;8.45;;
18443;SDS011;9350;53.176;8.194;2024-01-30T15:14:33;16.90;;;9.63;;